Terminal Aerodrome Forecast
Issued by NWS

Home | Current Version | Previous Version | Text Only | Print | Product List | Glossary On
Versions: 1 2 3 4 5 6 7 8 9 10 11 12 13 14 15 16 17 18
904
FTUS41 KCAR 101735
TAFHUL
TAF
KHUL 101735Z 1018/1118 20006KT P6SM BKN020
     FM102200 VRB03KT P6SM VCSH OVC020
     FM110200 31006KT P6SM VCSH OVC015
     FM111200 33006KT P6SM SCT015 BKN025=

USA.gov is the U.S. government's official web portal to all federal, state and local government web resources and services.